West West Florida High School FL US WEATHERSTEM current weather conditions

sailwx.info

Wind from 275 at 2 knots gusting 9

Air temperature 27.7° C
Dewpoint 24.6° C

Last reported at 2020-Sep-28 15:00 UTC.
Time now 2020-Sep-28 15:19 UTC

Location: N 30°30' W 087°15'.
View on Google Maps.

See reports from other nearby stations

  
Tides and Currents Weather Stations Pressure Air Temp Water Temp Dewpoint Dewpoint Depression Visibility Wind Speed Wind Dir Waves Ship Positions
date/time (UTC)wind fromknots sea level pressurealtimeterstation pressurevisibilityair tempwater tempwave heightnotes
2020-Sep-28 15:00 275 2 gusting 9 27.7
2020-Sep-28 14:50 284 6 gusting 10 27.5
2020-Sep-28 12:50 132 0 gusting 2 22.8
2020-Sep-28 12:40 132 1 gusting 1 22.7
2020-Sep-28 12:30 22.4
2020-Sep-28 12:20 132 0 gusting 1 22.2
2020-Sep-28 12:10 22.1
2020-Sep-28 12:00 22.0
2020-Sep-28 11:50 132 0 gusting 1 21.9
2020-Sep-28 11:40 132 0 gusting 0 21.9
2020-Sep-28 11:30 21.9
2020-Sep-28 11:20 22.0
2020-Sep-28 11:10 22.0
2020-Sep-28 11:00 22.1
2020-Sep-28 10:50 132 0 gusting 1 22.2
2020-Sep-28 10:40 132 0 gusting 1 22.2
2020-Sep-28 10:30 132 0 gusting 2 22.2
2020-Sep-28 10:20 22.2
2020-Sep-28 10:10 132 0 gusting 2 22.3
2020-Sep-28 10:00 132 0 gusting 1 22.3
2020-Sep-28 09:50 22.4
2020-Sep-28 09:40 132 1 gusting 2 22.3
2020-Sep-28 09:30 22.4
2020-Sep-28 09:20 132 1 gusting 2 22.6
2020-Sep-28 09:10 22.6
2020-Sep-28 09:00 132 1 gusting 3 22.7
2020-Sep-28 08:50 132 0 gusting 2 22.8
2020-Sep-28 08:40 132 0 gusting 1 22.8
2020-Sep-28 08:30 132 0 gusting 2 22.9
2020-Sep-28 08:20 132 0 gusting 1 22.9
2020-Sep-28 08:10 132 0 gusting 0 23.1
2020-Sep-28 08:00 23.2
2020-Sep-28 07:50 23.3
2020-Sep-28 07:40 132 0 gusting 0 23.3
2020-Sep-28 07:30 23.5
2020-Sep-28 07:20 23.6
2020-Sep-28 07:10 23.7
2020-Sep-28 07:00 23.9
2020-Sep-28 06:50 23.9
2020-Sep-28 06:40 24.0
2020-Sep-28 06:30 132 0 gusting 1 24.1
2020-Sep-28 06:20 132 0 gusting 0 24.3
2020-Sep-28 06:10 24.3
2020-Sep-28 06:00 132 0 gusting 2 24.4
2020-Sep-28 05:50 132 0 gusting 2 24.5
2020-Sep-28 05:40 132 1 gusting 2 24.6
2020-Sep-28 05:30 132 1 gusting 4 24.6
2020-Sep-28 05:20 132 1 gusting 4 24.6
2020-Sep-28 05:10 132 2 gusting 3 24.7
2020-Sep-28 05:00 132 1 gusting 4 24.7
2020-Sep-28 04:50 132 3 gusting 6 24.7
2020-Sep-28 04:40 132 2 gusting 7 24.8
2020-Sep-28 04:30 132 3 gusting 6 24.8
2020-Sep-28 04:20 132 2 gusting 6 24.8
2020-Sep-28 04:10 132 3 gusting 6 24.7
2020-Sep-28 03:50 132 3 gusting 7 24.6
2020-Sep-28 03:40 130 2 gusting 7 24.6
2020-Sep-28 03:30 130 2 gusting 7 24.5
2020-Sep-28 03:20 130 6 gusting 8 24.6
2020-Sep-28 03:10 103 6 gusting 8 24.6
2020-Sep-28 03:00 111 6 gusting 9 24.6
2020-Sep-28 02:50 126 4 gusting 10 24.6
2020-Sep-28 02:40 118 6 gusting 10 24.7
2020-Sep-28 02:30 122 6 gusting 11 24.7
2020-Sep-28 02:20 103 6 gusting 11 24.8
2020-Sep-28 02:10 134 7 gusting 11 24.8
2020-Sep-28 02:00 092 8 gusting 12 24.8
2020-Sep-28 01:50 080 6 gusting 13 24.8
2020-Sep-28 01:40 101 8 gusting 12 24.8
2020-Sep-28 01:30 082 6 gusting 11 24.8
2020-Sep-28 01:20 104 9 gusting 13 24.8
2020-Sep-28 01:10 109 7 gusting 13 24.8
2020-Sep-28 01:00 062 7 gusting 13 24.8
2020-Sep-28 00:50 111 6 gusting 14 24.9
2020-Sep-28 00:40 119 8 gusting 15 24.9
2020-Sep-28 00:30 116 11 gusting 16 25.1
2020-Sep-28 00:20 140 11 gusting 14 25.2
2020-Sep-28 00:10 115 11 gusting 14 25.3
2020-Sep-28 00:00 132 6 gusting 12 25.2
2020-Sep-27 23:50 107 3 gusting 14 25.2
2020-Sep-27 23:40 092 11 gusting 17 25.2
2020-Sep-27 23:30 088 11 gusting 18 25.3
2020-Sep-27 23:20 103 11 gusting 19 25.4
2020-Sep-27 23:10 096 12 gusting 15 25.4
2020-Sep-27 23:00 124 12 gusting 12 25.6
2020-Sep-27 22:50 095 7 gusting 15 25.7
2020-Sep-27 22:40 082 11 gusting 14 26.0
2020-Sep-27 22:30 123 7 gusting 15 26.1
2020-Sep-27 22:20 087 7 gusting 12 26.2
2020-Sep-27 22:10 093 7 gusting 18 26.3
2020-Sep-27 22:00 118 11 gusting 16 26.6
2020-Sep-27 21:50 116 13 gusting 16 26.8
2020-Sep-27 21:40 099 13 gusting 15 27.1
2020-Sep-27 21:30 111 14 gusting 20 27.1
2020-Sep-27 21:20 098 10 gusting 20 27.3
2020-Sep-27 21:10 134 17 gusting 19 27.5
2020-Sep-27 21:00 148 13 gusting 20 27.8
2020-Sep-27 20:50 113 13 gusting 17 28.3
2020-Sep-27 20:40 117 12 gusting 21 29.3
2020-Sep-27 20:30 098 6 gusting 13 30.3
2020-Sep-27 20:20 105 1 gusting 9 31.4
2020-Sep-27 20:10 147 4 gusting 10 31.2
2020-Sep-27 20:00 133 7 gusting 11 31.1
2020-Sep-27 19:50 136 2 gusting 8 31.0
2020-Sep-27 19:40 31.1
2020-Sep-27 19:30 249 4 gusting 6 30.9
2020-Sep-27 19:20 235 0 gusting 7 30.8
2020-Sep-27 19:10 256 6 gusting 7 30.5
2020-Sep-27 19:00 258 6 gusting 7 30.4
2020-Sep-27 18:50 208 5 gusting 7 30.7
2020-Sep-27 18:40 286 7 gusting 9 30.7
2020-Sep-27 18:30 277 6 gusting 10 30.1
2020-Sep-27 18:20 274 10 gusting 10 30.5
2020-Sep-27 18:10 287 0 gusting 9 30.6
2020-Sep-27 18:00 290 2 gusting 9 30.1
2020-Sep-27 17:50 254 0 gusting 8 29.6
2020-Sep-27 17:40 237 5 gusting 10 29.6
2020-Sep-27 17:30 292 4 gusting 8 29.7
2020-Sep-27 17:20 265 6 gusting 8 29.6
2020-Sep-27 17:10 240 6 gusting 9 29.5
2020-Sep-27 17:00 296 4 gusting 7 29.8
2020-Sep-27 16:50 217 3 gusting 9 29.4
2020-Sep-27 16:40 292 2 gusting 8 29.0
2020-Sep-27 16:30 302 1 gusting 10 28.7
2020-Sep-27 16:20 271 1 gusting 8 28.7
2020-Sep-27 16:10 286 6 gusting 11 28.6
2020-Sep-27 16:00 291 6 gusting 7 28.4
2020-Sep-27 15:50 269 6 gusting 9 28.4
2020-Sep-27 15:40 304 4 gusting 7 28.3
2020-Sep-27 15:30 290 6 gusting 9 28.3
2020-Sep-27 15:20 266 3 gusting 8 28.1
2020-Sep-27 15:10 271 5 gusting 7 27.7
2020-Sep-27 15:00 289 3 gusting 9 27.4
2020-Sep-27 14:50 323 3 gusting 9 27.3
2020-Sep-27 14:40 282 0 gusting 8 27.4
2020-Sep-27 14:30 27.2
2020-Sep-27 14:20 281 5 gusting 7 26.8
2020-Sep-27 14:10 272 1 gusting 5 26.4
2020-Sep-27 14:00 271 2 gusting 9 26.0
2020-Sep-27 13:50 280 1 gusting 7 26.1
2020-Sep-27 13:40 279 3 gusting 7 25.9
2020-Sep-27 13:30 294 3 gusting 8 26.1
2020-Sep-27 13:20 295 0 gusting 6 26.2
2020-Sep-27 13:10 269 5 gusting 7 26.2
2020-Sep-27 13:00 229 2 gusting 6 26.1
2020-Sep-27 12:50 171 3 gusting 3 25.8
2020-Sep-27 12:40 171 0 gusting 1 25.6
2020-Sep-27 12:30 171 1 gusting 3 25.4
2020-Sep-27 12:20 25.4
2020-Sep-27 12:10 25.4
2020-Sep-27 12:00 25.5
2020-Sep-27 11:50 25.6
2020-Sep-27 11:40 25.6
2020-Sep-27 11:30 25.7
2020-Sep-27 11:20 171 0 gusting 3 25.7
2020-Sep-27 11:10 171 3 gusting 3 25.7
2020-Sep-27 11:00 171 1 gusting 0 25.7
2020-Sep-27 10:50 171 0 gusting 3 25.7
2020-Sep-27 10:40 171 1 gusting 4 25.7
2020-Sep-27 10:30 25.8
2020-Sep-27 10:20 171 0 gusting 5 25.7
2020-Sep-27 10:10 171 1 gusting 5 25.8
2020-Sep-27 10:00 171 4 gusting 6 25.8
2020-Sep-27 09:50 171 4 gusting 6 25.9
2020-Sep-27 09:40 171 5 gusting 5 25.9
2020-Sep-27 09:30 171 4 gusting 6 26.0
2020-Sep-27 09:20 171 1 gusting 7 26.1
2020-Sep-27 09:10 164 6 gusting 6 26.0
2020-Sep-27 09:00 158 4 gusting 10 26.1
2020-Sep-27 08:50 169 5 gusting 9 26.0
2020-Sep-27 08:40 140 4 gusting 10 25.9
2020-Sep-27 08:30 144 1 gusting 8 25.9
2020-Sep-27 08:20 140 6 gusting 8 25.9
2020-Sep-27 08:10 136 2 gusting 8 25.9
2020-Sep-27 08:00 145 4 gusting 8 25.9
2020-Sep-27 07:50 141 6 gusting 9 25.9
2020-Sep-27 07:40 135 7 gusting 10 25.9
2020-Sep-27 07:30 148 8 gusting 11 26.0
2020-Sep-27 07:20 138 7 gusting 14 26.0
2020-Sep-27 07:10 142 8 gusting 10 26.1
2020-Sep-27 07:00 144 2 gusting 7 26.0
2020-Sep-27 06:50 143 6 gusting 9 25.9
2020-Sep-27 06:40 148 2 gusting 6 25.9
2020-Sep-27 06:30 148 2 gusting 6 25.8
2020-Sep-27 06:20 148 2 gusting 7 25.8
2020-Sep-27 06:10 158 5 gusting 7 25.7
2020-Sep-27 06:00 155 1 gusting 8 25.7
2020-Sep-27 05:50 142 3 gusting 6 25.6
2020-Sep-27 05:40 143 4 gusting 6 25.6
2020-Sep-27 05:30 138 4 gusting 7 25.5
2020-Sep-27 05:20 132 6 gusting 7 25.5
2020-Sep-27 05:10 138 6 gusting 8 25.4
2020-Sep-27 05:00 142 4 gusting 6 25.3
2020-Sep-27 04:50 144 3 gusting 7 25.3
2020-Sep-27 04:40 144 2 gusting 5 25.3
2020-Sep-27 04:30 144 3 gusting 7 25.3
2020-Sep-27 04:20 137 4 gusting 7 25.2
2020-Sep-27 04:10 135 6 gusting 8 25.2
2020-Sep-27 03:50 132 6 gusting 7 25.2
2020-Sep-27 03:40 132 4 gusting 7 25.1
2020-Sep-27 03:30 134 3 gusting 8 25.1
2020-Sep-27 03:20 132 3 gusting 6 25.0
2020-Sep-27 03:10 132 4 gusting 6 24.9
2020-Sep-27 03:00 132 2 gusting 4 24.9
2020-Sep-27 02:50 132 3 gusting 6 24.9
2020-Sep-27 02:40 132 3 gusting 6 24.9
2020-Sep-27 02:30 132 2 gusting 3 24.9
2020-Sep-27 02:20 132 2 gusting 3 24.9
2020-Sep-27 02:10 132 2 gusting 4 25.0
2020-Sep-27 02:00 132 6 gusting 6 25.1
2020-Sep-27 01:50 132 3 gusting 6 25.1
2020-Sep-27 01:40 132 3 gusting 6 25.1
2020-Sep-27 01:30 132 2 gusting 6 25.2
2020-Sep-27 01:20 132 4 gusting 6 25.3
2020-Sep-26 23:00 134 8 gusting 11 26.7
2020-Sep-26 22:00 147 8 gusting 9 27.4
2020-Sep-26 21:50 151 4 gusting 10 27.5
2020-Sep-26 21:40 146 6 gusting 13 27.6
2020-Sep-26 21:30 100 9 gusting 12 27.6
2020-Sep-26 21:20 109 6 gusting 10 27.6
2020-Sep-26 21:10 132 7 gusting 13 27.4
2020-Sep-26 21:00 157 7 gusting 11 27.6
2020-Sep-26 20:50 098 6 gusting 10 27.2
2020-Sep-26 20:40 131 7 gusting 11 26.9
2020-Sep-26 20:30 130 7 gusting 12 27.3
2020-Sep-26 20:20 104 7 gusting 12 27.4
2020-Sep-26 20:10 109 6 gusting 10 27.5
2020-Sep-26 20:00 113 6 gusting 13 27.4
2020-Sep-26 19:50 136 8 gusting 11 27.3
2020-Sep-26 19:40 113 5 gusting 10 27.3
2020-Sep-26 19:30 128 7 gusting 10 27.3
2020-Sep-26 19:20 139 6 gusting 13 27.4
2020-Sep-26 19:10 120 3 gusting 12 27.3
2020-Sep-26 19:00 098 6 gusting 13 27.2
2020-Sep-26 18:50 167 4 gusting 13 27.1
2020-Sep-26 18:40 113 11 gusting 12 27.5
2020-Sep-26 18:30 126 4 gusting 13 27.7
2020-Sep-26 18:20 132 11 gusting 9 28.0
2020-Sep-26 18:10 123 6 gusting 9 27.8
2020-Sep-26 18:00 101 6 gusting 10 27.3
2020-Sep-26 17:50 072 6 gusting 12 27.6
2020-Sep-26 17:40 088 7 gusting 11 27.5
2020-Sep-26 17:30 130 3 gusting 10 27.2
2020-Sep-26 17:20 071 3 gusting 8 27.2
2020-Sep-26 17:10 078 7 gusting 9 27.1
2020-Sep-26 17:00 099 2 gusting 8 26.8
2020-Sep-26 16:50 087 4 gusting 9 26.8
2020-Sep-26 16:40 063 0 gusting 10 26.6
2020-Sep-26 16:30 075 8 gusting 10 26.5
2020-Sep-26 16:20 086 4 gusting 9 26.1
2020-Sep-26 16:10 080 4 gusting 12 25.6
2020-Sep-26 16:00 078 3 gusting 10 25.6
2020-Sep-26 15:50 082 7 gusting 9 25.3
2020-Sep-26 15:40 080 6 gusting 8 25.1
2020-Sep-26 15:30 073 7 gusting 8 24.8
2020-Sep-26 15:20 080 4 gusting 10 24.6
2020-Sep-26 15:10 071 4 gusting 9 24.4
2020-Sep-26 15:00 085 6 gusting 8 24.4